Terminal Aerodrome Forecast
Issued by NWS Louisville, KY

Home | Current Version | Previous Version | Text Only | Print | Product List | Glossary On
Versions: 1 2 3 4 5 6 7 8 9 10 11 12 13 14 15 16 17 18 19 20 21 22 23
000
FTUS43 KLMK 140500
TAFSDF
TAF
KSDF 140520Z 1406/1512 19015G24KT P6SM OVC100 WS020/20047KT
     FM140800 20017G26KT 6SM -SHRA BKN045 WS020/20047KT
     FM140840 24020G30KT 1SM +TSRA BR BKN025CB
     FM140930 20017G26KT 6SM -SHRA BKN040 WS020/21044KT
     FM141300 20018G29KT P6SM VCSH OVC021
     FM141800 22013KT P6SM VCSH OVC025
     FM142200 33013KT P6SM -RA OVC017
     FM150500 32018G26KT P6SM -RASNPL OVC019=

USA.gov is the U.S. government's official web portal to all federal, state and local government web resources and services.